Terminal Aerodrome Forecast
Issued by NWS Albuquerque, NM

Home | Current Version | Previous Version | Text Only | Print | Product List | Glossary On
Versions: 1 2 3 4 5 6 7 8 9 10 11 12 13 14
000
FTUS45 KABQ 191700 RRA
TAFABQ
TAF
KABQ 191754Z 1918/2018 VRB05KT P6SM SCT050 BKN100
     FM200200 11010KT P6SM FEW100
     FM201000 07008KT P6SM BKN040=

USA.gov is the U.S. government's official web portal to all federal, state and local government web resources and services.